createdAt,value
2023-03-27T00:01:25.973Z,4.03
2023-03-27T00:03:53.745Z,3.55
2023-03-27T00:06:21.996Z,3.88
2023-03-27T00:08:53.619Z,3.85
2023-03-27T00:11:22.339Z,3.88
2023-03-27T00:13:56.071Z,3.70
2023-03-27T00:16:25.507Z,3.58
2023-03-27T00:18:53.415Z,4.30
2023-03-27T00:21:22.508Z,4.75
2023-03-27T00:23:50.000Z,4.00
2023-03-27T00:26:17.373Z,4.50
2023-03-27T00:28:44.807Z,5.00
2023-03-27T00:31:13.317Z,3.90
2023-03-27T00:33:41.447Z,4.80
2023-03-27T00:36:09.575Z,4.60
2023-03-27T00:38:39.612Z,4.28
2023-03-27T00:41:07.787Z,4.15
2023-03-27T00:43:35.938Z,4.45
2023-03-27T00:46:22.346Z,4.15
2023-03-27T00:48:51.674Z,3.92
2023-03-27T00:51:20.499Z,4.53
2023-03-27T00:53:48.336Z,4.13
2023-03-27T00:56:16.635Z,4.10
2023-03-27T00:58:49.621Z,3.13
2023-03-27T01:01:18.301Z,3.67
2023-03-27T01:03:47.861Z,4.15
2023-03-27T01:06:17.244Z,3.85
2023-03-27T01:08:47.642Z,4.13
2023-03-27T01:11:18.085Z,4.20
2023-03-27T01:13:53.431Z,4.10
2023-03-27T01:16:28.677Z,3.50
2023-03-27T01:19:00.418Z,4.97
2023-03-27T01:21:47.766Z,3.58
2023-03-27T01:24:28.400Z,3.58
2023-03-27T01:26:58.029Z,3.88
2023-03-27T01:29:26.301Z,3.72
2023-03-27T01:32:12.487Z,3.53
2023-03-27T01:35:01.257Z,3.70
2023-03-27T01:37:33.704Z,3.78
2023-03-27T01:40:01.118Z,3.50
2023-03-27T01:42:39.689Z,3.78
2023-03-27T01:45:20.386Z,3.53
2023-03-27T01:47:57.172Z,3.83
2023-03-27T01:50:28.472Z,3.65
2023-03-27T01:53:16.197Z,3.85
2023-03-27T01:55:46.731Z,3.70
2023-03-27T01:58:17.494Z,3.70
2023-03-27T02:00:51.973Z,3.63
2023-03-27T02:03:36.740Z,3.60
2023-03-27T02:06:07.849Z,3.75
2023-03-27T02:08:39.734Z,3.28
2023-03-27T02:11:15.428Z,3.25
2023-03-27T02:13:45.269Z,3.40
2023-03-27T02:16:15.688Z,3.28
2023-03-27T02:18:47.714Z,3.10
2023-03-27T02:21:16.590Z,3.17
2023-03-27T02:23:44.867Z,4.03
2023-03-27T02:26:14.081Z,3.72
2023-03-27T02:28:47.590Z,4.00
2023-03-27T02:31:32.750Z,4.05
2023-03-27T02:34:02.675Z,4.28
2023-03-27T02:36:45.868Z,4.57
2023-03-27T02:39:17.275Z,4.22
2023-03-27T02:41:44.776Z,4.10
2023-03-27T02:44:57.348Z,3.80
2023-03-27T02:47:31.644Z,4.18
2023-03-27T02:50:03.993Z,3.70
2023-03-27T02:52:48.182Z,3.13
2023-03-27T02:55:19.051Z,2.63
2023-03-27T02:57:52.075Z,2.78
2023-03-27T03:00:37.524Z,3.10
2023-03-27T03:03:34.433Z,3.72
2023-03-27T03:06:11.131Z,3.35
2023-03-27T03:08:39.454Z,3.45
2023-03-27T03:11:11.420Z,3.05
2023-03-27T03:13:41.066Z,3.22
2023-03-27T03:16:09.928Z,3.30
2023-03-27T03:18:37.431Z,3.30
2023-03-27T03:21:05.850Z,3.40
2023-03-27T03:23:34.012Z,3.40
2023-03-27T03:26:03.870Z,3.25
2023-03-27T03:28:59.855Z,3.40
2023-03-27T03:31:43.258Z,3.05
2023-03-27T03:34:16.373Z,3.28
2023-03-27T03:36:45.110Z,3.05
2023-03-27T03:39:12.878Z,3.22
2023-03-27T03:41:41.571Z,3.10
2023-03-27T03:44:10.428Z,2.72
2023-03-27T03:46:39.200Z,2.88
2023-03-27T03:49:07.042Z,2.75
2023-03-27T03:51:35.797Z,3.35
2023-03-27T03:54:05.442Z,3.08
2023-03-27T03:56:34.542Z,3.00
2023-03-27T03:59:02.324Z,2.90
2023-03-27T04:01:31.541Z,2.53
2023-03-27T04:04:02.429Z,2.70
2023-03-27T04:06:46.172Z,2.70
2023-03-27T04:09:13.772Z,2.75
2023-03-27T04:12:01.767Z,2.67
2023-03-27T04:14:48.023Z,2.78
2023-03-27T04:17:35.523Z,2.40
2023-03-27T04:20:06.001Z,2.45
2023-03-27T04:22:38.107Z,2.05
2023-03-27T04:25:09.044Z,2.47
2023-03-27T04:27:36.509Z,2.75
2023-03-27T04:30:22.208Z,2.25
2023-03-27T04:33:25.753Z,2.30
2023-03-27T04:36:06.360Z,2.80
2023-03-27T04:39:02.392Z,2.40
2023-03-27T04:41:32.703Z,2.17
2023-03-27T04:44:00.328Z,2.10
2023-03-27T04:46:29.286Z,2.40
2023-03-27T04:49:02.309Z,2.22
2023-03-27T04:51:56.758Z,2.40
2023-03-27T04:54:31.779Z,2.10
2023-03-27T04:57:01.900Z,2.40
2023-03-27T04:59:33.558Z,2.03
2023-03-27T05:02:31.286Z,2.00
2023-03-27T05:05:14.488Z,2.70
2023-03-27T05:07:45.617Z,2.55
2023-03-27T05:10:17.617Z,2.60
2023-03-27T05:12:51.583Z,2.50
2023-03-27T05:15:20.015Z,1.95
2023-03-27T05:17:54.946Z,2.60
2023-03-27T05:20:25.587Z,2.50
2023-03-27T05:22:56.846Z,2.40
2023-03-27T05:25:29.266Z,2.60
2023-03-27T05:27:58.035Z,2.65
2023-03-27T05:30:29.411Z,2.95
2023-03-27T05:33:14.052Z,2.38
2023-03-27T05:35:48.270Z,2.58
2023-03-27T05:38:16.958Z,2.47
2023-03-27T05:41:12.546Z,2.00
2023-03-27T05:43:46.021Z,2.80
2023-03-27T05:46:21.344Z,2.80
2023-03-27T05:49:05.216Z,3.05
2023-03-27T05:51:33.387Z,2.42
2023-03-27T05:54:01.043Z,2.20
2023-03-27T05:56:39.334Z,2.25
2023-03-27T05:59:07.022Z,2.20
2023-03-27T06:01:36.603Z,2.50
2023-03-27T06:04:05.248Z,1.95
2023-03-27T06:06:50.748Z,2.47
2023-03-27T06:09:18.292Z,2.10
2023-03-27T06:12:02.960Z,2.03
2023-03-27T06:14:35.207Z,2.78
2023-03-27T06:17:22.858Z,2.53
2023-03-27T06:19:57.137Z,2.65
2023-03-27T06:22:24.863Z,2.55
2023-03-27T06:24:53.893Z,2.80
2023-03-27T06:27:22.260Z,2.60
2023-03-27T06:29:49.743Z,2.80
2023-03-27T06:32:17.438Z,2.45
2023-03-27T06:34:50.813Z,3.08
2023-03-27T06:37:36.931Z,2.15
2023-03-27T06:40:09.690Z,3.35
2023-03-27T06:42:38.746Z,2.60
2023-03-27T06:45:26.166Z,2.38
2023-03-27T06:48:24.338Z,2.38
2023-03-27T06:50:58.052Z,2.70
2023-03-27T06:53:28.367Z,2.42
2023-03-27T06:55:57.450Z,2.85
2023-03-27T06:58:27.432Z,2.70
2023-03-27T07:00:56.072Z,2.33
2023-03-27T07:03:23.603Z,2.50
2023-03-27T07:06:01.088Z,2.40
2023-03-27T07:08:34.667Z,2.42
2023-03-27T07:13:35.920Z,2.20
2023-03-27T07:16:07.105Z,2.17
2023-03-27T07:18:34.702Z,2.55
2023-03-27T07:21:02.086Z,2.70
2023-03-27T07:23:30.010Z,2.20
2023-03-27T07:26:04.059Z,3.00
2023-03-27T07:28:51.790Z,3.17
2023-03-27T07:31:33.062Z,2.80
2023-03-27T07:34:09.111Z,3.83
2023-03-27T07:37:08.691Z,3.22
2023-03-27T07:39:39.347Z,3.15
2023-03-27T07:42:07.431Z,3.33
2023-03-27T07:44:54.986Z,5.15
2023-03-27T07:47:22.597Z,3.33
2023-03-27T07:49:50.031Z,3.63
2023-03-27T07:52:22.287Z,3.40
2023-03-27T07:54:59.054Z,3.15
2023-03-27T07:57:45.942Z,4.00
2023-03-27T08:00:25.482Z,4.15
2023-03-27T08:03:11.826Z,4.13
2023-03-27T08:05:44.285Z,4.05
2023-03-27T08:08:14.431Z,3.15
2023-03-27T08:10:47.373Z,3.70
2023-03-27T08:13:18.339Z,3.88
2023-03-27T08:15:46.643Z,4.20
2023-03-27T08:18:22.850Z,4.30
2023-03-27T08:20:55.704Z,4.47
2023-03-27T08:23:27.207Z,4.30
2023-03-27T08:26:18.163Z,4.97
2023-03-27T08:28:56.471Z,5.18
2023-03-27T08:31:30.610Z,5.00
2023-03-27T08:34:02.882Z,4.50
2023-03-27T08:36:40.017Z,4.57
2023-03-27T08:39:08.245Z,4.30
2023-03-27T08:41:55.097Z,3.75
2023-03-27T08:44:31.611Z,3.95
2023-03-27T08:47:03.243Z,3.63
2023-03-27T08:49:35.765Z,3.50
2023-03-27T08:52:32.318Z,4.40
2023-03-27T08:55:06.333Z,3.72
2023-03-27T08:57:38.588Z,3.97
2023-03-27T09:00:21.461Z,3.53
2023-03-27T09:02:54.813Z,3.85
2023-03-27T09:05:24.335Z,4.15
2023-03-27T09:07:59.962Z,3.40
2023-03-27T09:10:32.266Z,3.35
2023-03-27T09:13:04.449Z,3.30
2023-03-27T09:15:39.565Z,3.80
2023-03-27T09:18:13.266Z,3.60
2023-03-27T09:20:46.954Z,3.95
2023-03-27T09:23:14.336Z,4.00
2023-03-27T09:26:08.065Z,4.68
2023-03-27T09:29:01.485Z,4.07
2023-03-27T09:31:35.148Z,3.30
2023-03-27T09:34:09.012Z,3.13
2023-03-27T09:36:36.441Z,3.05
2023-03-27T09:39:07.632Z,3.08
2023-03-27T09:41:42.609Z,3.38
2023-03-27T09:44:12.487Z,3.88
2023-03-27T09:46:44.868Z,3.00
2023-03-27T09:49:14.266Z,3.25
2023-03-27T09:51:49.509Z,3.03
2023-03-27T09:54:54.076Z,2.70
2023-03-27T09:57:47.768Z,2.80
2023-03-27T10:00:27.927Z,2.50
2023-03-27T10:03:08.153Z,2.55
2023-03-27T10:05:39.730Z,2.80
2023-03-27T10:08:28.674Z,2.67
2023-03-27T10:11:08.625Z,2.63
2023-03-27T10:13:44.428Z,2.53
2023-03-27T10:16:12.038Z,2.80
2023-03-27T10:18:53.555Z,3.20
2023-03-27T10:21:21.958Z,2.58
2023-03-27T10:23:50.319Z,2.95
2023-03-27T10:26:28.780Z,2.60
2023-03-27T10:29:01.568Z,2.65
2023-03-27T10:31:38.333Z,2.60
2023-03-27T10:34:32.701Z,2.80
2023-03-27T10:37:29.909Z,2.78
2023-03-27T10:40:21.388Z,2.90
2023-03-27T10:42:55.897Z,2.60
2023-03-27T10:45:24.303Z,2.92
2023-03-27T10:47:59.114Z,2.83
2023-03-27T10:50:38.445Z,2.80
2023-03-27T10:53:06.207Z,2.65
2023-03-27T10:55:56.900Z,2.40
2023-03-27T10:58:24.649Z,2.30
2023-03-27T11:00:57.431Z,2.55
2023-03-27T11:03:55.677Z,2.53
2023-03-27T11:06:27.247Z,2.30
2023-03-27T11:09:05.822Z,2.13
2023-03-27T11:11:39.648Z,2.20
2023-03-27T11:14:27.590Z,2.42
2023-03-27T11:16:57.583Z,2.40
2023-03-27T11:19:54.668Z,2.35
2023-03-27T11:22:30.716Z,2.03
2023-03-27T11:25:05.901Z,2.57
2023-03-27T11:27:37.428Z,2.30
2023-03-27T11:30:20.329Z,2.95
2023-03-27T11:33:10.457Z,2.65
2023-03-27T11:35:52.225Z,2.45
2023-03-27T11:39:01.618Z,2.80
2023-03-27T11:41:29.212Z,2.80
2023-03-27T11:44:01.546Z,2.55
2023-03-27T11:47:19.689Z,2.58
2023-03-27T11:50:07.976Z,2.45
2023-03-27T11:52:44.765Z,2.90
2023-03-27T11:55:26.078Z,3.92
2023-03-27T11:58:00.960Z,3.20
2023-03-27T12:00:54.385Z,2.08
2023-03-27T12:03:25.329Z,2.13
2023-03-27T12:06:02.854Z,2.20
2023-03-27T12:08:43.031Z,2.00
2023-03-27T12:11:12.531Z,2.22
2023-03-27T12:14:00.933Z,2.25
2023-03-27T12:16:52.573Z,3.33
2023-03-27T12:19:41.838Z,2.80
2023-03-27T12:22:46.166Z,2.72
2023-03-27T12:25:37.799Z,2.72
2023-03-27T12:28:23.914Z,3.50
2023-03-27T12:31:11.704Z,3.83
2023-03-27T12:33:42.382Z,3.78
2023-03-27T12:36:12.685Z,3.60
2023-03-27T12:38:42.002Z,3.80
2023-03-27T12:41:13.006Z,4.45
2023-03-27T12:44:00.858Z,4.47
2023-03-27T12:46:36.795Z,4.35
2023-03-27T12:49:11.969Z,4.65
2023-03-27T12:51:51.888Z,4.65
2023-03-27T12:54:40.278Z,5.93
2023-03-27T12:57:44.434Z,5.95
2023-03-27T13:00:25.600Z,5.82
2023-03-27T13:02:54.108Z,7.03
2023-03-27T13:05:27.727Z,8.05
2023-03-27T13:08:15.127Z,7.43
2023-03-27T13:11:17.484Z,7.72
2023-03-27T13:14:00.358Z,7.20
2023-03-27T13:16:27.946Z,7.13
2023-03-27T13:19:02.275Z,7.03
2023-03-27T13:21:48.789Z,6.75
2023-03-27T13:24:25.680Z,5.90
2023-03-27T13:26:57.096Z,6.72
2023-03-27T13:29:27.113Z,6.95
2023-03-27T13:32:06.220Z,6.07
2023-03-27T13:35:09.852Z,6.45
2023-03-27T13:37:41.910Z,5.95
2023-03-27T13:40:23.267Z,6.88
2023-03-27T13:43:03.140Z,6.05
2023-03-27T13:45:38.625Z,6.28
2023-03-27T13:48:50.465Z,5.88
2023-03-27T13:51:40.192Z,5.72
2023-03-27T13:54:28.562Z,5.35
2023-03-27T13:56:56.049Z,6.15
2023-03-27T13:59:58.678Z,6.18
2023-03-27T14:02:46.466Z,5.55
2023-03-27T14:05:18.408Z,5.20
2023-03-27T14:07:46.116Z,5.75
2023-03-27T14:10:35.891Z,5.70
2023-03-27T14:13:07.639Z,5.70
2023-03-27T14:16:04.245Z,5.72
2023-03-27T14:19:00.389Z,6.10
2023-03-27T14:21:38.541Z,6.80
2023-03-27T14:24:28.161Z,6.63
2023-03-27T14:27:07.093Z,6.55
2023-03-27T14:29:38.100Z,6.82
2023-03-27T14:32:06.676Z,5.90
2023-03-27T14:34:47.304Z,6.15
2023-03-27T14:37:42.820Z,6.93
2023-03-27T14:40:27.286Z,6.45
2023-03-27T14:42:58.858Z,6.25
2023-03-27T14:45:29.862Z,6.03
2023-03-27T14:48:17.554Z,5.80
2023-03-27T14:50:48.811Z,5.57
2023-03-27T14:53:22.038Z,5.50
2023-03-27T14:56:11.700Z,5.40
2023-03-27T14:59:03.147Z,5.93
2023-03-27T15:01:47.724Z,6.60
2023-03-27T15:04:15.603Z,6.38
2023-03-27T15:06:45.650Z,6.32
2023-03-27T15:09:24.975Z,6.38
2023-03-27T15:11:59.145Z,6.55
2023-03-27T15:14:32.257Z,5.90
2023-03-27T15:17:02.921Z,6.68
2023-03-27T15:19:43.275Z,6.47
2023-03-27T15:22:24.472Z,6.13
2023-03-27T15:24:56.951Z,6.97
2023-03-27T15:27:28.588Z,6.25
2023-03-27T15:29:59.118Z,7.20
2023-03-27T15:32:30.177Z,7.15
2023-03-27T15:34:59.446Z,7.10
2023-03-27T15:37:28.665Z,7.72
2023-03-27T15:40:13.432Z,8.32
2023-03-27T15:42:49.183Z,7.55
2023-03-27T15:45:18.166Z,8.25
2023-03-27T15:47:57.886Z,10.18
2023-03-27T15:50:28.064Z,9.90
2023-03-27T15:52:58.230Z,10.88
2023-03-27T15:55:37.944Z,12.73
2023-03-27T15:58:24.216Z,17.70
2023-03-27T16:00:53.118Z,13.30
2023-03-27T16:03:22.570Z,13.27
2023-03-27T16:05:52.459Z,11.82
2023-03-27T16:08:34.528Z,14.18
2023-03-27T16:11:02.490Z,13.63
2023-03-27T16:13:34.624Z,13.23
2023-03-27T16:16:07.114Z,15.60
2023-03-27T16:18:35.791Z,15.52
2023-03-27T16:21:10.839Z,15.27
2023-03-27T16:26:06.929Z,16.17
2023-03-27T16:28:34.503Z,19.58
2023-03-27T16:31:10.808Z,18.77
2023-03-27T16:33:38.452Z,19.38
2023-03-27T16:36:05.990Z,20.75
2023-03-27T16:38:35.444Z,18.65
2023-03-27T16:41:02.822Z,16.85
2023-03-27T16:43:30.276Z,16.13
2023-03-27T16:45:57.883Z,15.07
2023-03-27T16:48:25.528Z,13.55
2023-03-27T16:50:53.012Z,12.50
2023-03-27T16:53:20.550Z,11.90
2023-03-27T16:55:50.928Z,11.40
2023-03-27T16:58:18.361Z,13.52
2023-03-27T17:00:45.868Z,14.02
2023-03-27T17:03:13.486Z,13.40
2023-03-27T17:05:43.081Z,12.32
2023-03-27T17:08:11.370Z,12.10
2023-03-27T17:10:38.846Z,12.32
2023-03-27T17:13:06.704Z,12.32
2023-03-27T17:15:36.916Z,11.48
2023-03-27T17:18:04.772Z,11.45
2023-03-27T17:20:32.185Z,11.57
2023-03-27T17:22:59.746Z,12.23
2023-03-27T17:25:27.862Z,11.57
2023-03-27T17:27:55.365Z,11.77
2023-03-27T17:30:36.725Z,12.02
2023-03-27T17:33:07.208Z,11.93
2023-03-27T17:35:34.635Z,11.30
2023-03-27T17:38:02.771Z,11.13
2023-03-27T17:40:30.164Z,10.77
2023-03-27T17:42:57.570Z,10.18
2023-03-27T17:45:25.058Z,10.25
2023-03-27T17:47:52.568Z,9.63
2023-03-27T17:50:20.167Z,9.80
2023-03-27T17:52:47.810Z,9.73
2023-03-27T17:55:15.523Z,8.85
2023-03-27T17:57:43.089Z,9.43
2023-03-27T18:00:12.156Z,9.50
2023-03-27T18:02:42.524Z,9.77
2023-03-27T18:05:10.183Z,9.05
2023-03-27T18:07:37.603Z,9.50
2023-03-27T18:10:05.564Z,9.55
2023-03-27T18:12:33.579Z,8.93
2023-03-27T18:15:00.981Z,9.05
2023-03-27T18:17:28.427Z,10.15
2023-03-27T18:19:55.848Z,9.60
2023-03-27T18:22:23.444Z,9.85
2023-03-27T18:24:51.039Z,10.00
2023-03-27T18:27:18.587Z,10.48
2023-03-27T18:29:46.007Z,10.57
2023-03-27T18:32:13.553Z,10.82
2023-03-27T18:34:41.369Z,9.70
2023-03-27T18:37:08.834Z,10.57
2023-03-27T18:39:37.551Z,10.00
2023-03-27T18:42:05.559Z,10.15
2023-03-27T18:44:33.065Z,9.35
2023-03-27T18:47:00.706Z,10.25
2023-03-27T18:49:28.153Z,10.82
2023-03-27T18:51:55.657Z,10.40
2023-03-27T18:54:23.061Z,10.55
2023-03-27T18:56:52.043Z,9.55
2023-03-27T18:59:19.705Z,10.95
2023-03-27T19:01:47.215Z,10.70
2023-03-27T19:04:17.113Z,11.05
2023-03-27T19:06:46.483Z,10.95
2023-03-27T19:09:14.442Z,10.85
2023-03-27T19:11:43.977Z,10.65
2023-03-27T19:14:31.827Z,10.70
2023-03-27T19:17:34.695Z,10.60
2023-03-27T19:20:22.559Z,10.93
2023-03-27T19:22:51.784Z,10.00
2023-03-27T19:25:29.579Z,9.15
2023-03-27T19:27:57.026Z,8.88
2023-03-27T19:30:24.601Z,8.63
2023-03-27T19:32:55.107Z,7.50
2023-03-27T19:35:22.676Z,6.68
2023-03-27T19:37:50.301Z,6.88
2023-03-27T19:40:20.374Z,6.28
2023-03-27T19:42:48.323Z,7.28
2023-03-27T19:45:16.240Z,10.63
2023-03-27T19:47:47.129Z,6.10
2023-03-27T19:50:14.944Z,5.80
2023-03-27T19:53:14.571Z,5.53
2023-03-27T19:55:43.078Z,6.07
2023-03-27T19:58:10.879Z,5.40
2023-03-27T20:00:38.529Z,5.47
2023-03-27T20:03:10.426Z,5.68
2023-03-27T20:05:39.529Z,5.60
2023-03-27T20:08:07.160Z,5.70
2023-03-27T20:10:34.574Z,5.50
2023-03-27T20:13:01.979Z,5.40
2023-03-27T20:15:29.883Z,5.07
2023-03-27T20:17:57.489Z,5.55
2023-03-27T20:20:25.000Z,5.30
2023-03-27T20:22:57.986Z,4.82
2023-03-27T20:25:28.055Z,4.47
2023-03-27T20:27:56.256Z,5.00
2023-03-27T20:30:23.706Z,5.10
2023-03-27T20:32:51.316Z,4.70
2023-03-27T20:35:24.409Z,4.47
2023-03-27T20:37:56.144Z,4.60
2023-03-27T20:40:25.756Z,4.72
2023-03-27T20:43:03.431Z,4.47
2023-03-27T20:45:31.507Z,4.85
2023-03-27T20:48:03.227Z,5.32
2023-03-27T20:50:31.763Z,5.28
2023-03-27T20:52:59.180Z,5.18
2023-03-27T20:58:00.200Z,5.93
2023-03-27T21:00:27.961Z,5.80
2023-03-27T21:02:55.760Z,6.15
2023-03-27T21:05:23.212Z,6.70
2023-03-27T21:07:51.320Z,6.68
2023-03-27T21:10:22.100Z,6.65
2023-03-27T21:12:51.120Z,6.22
2023-03-27T21:15:18.556Z,6.15
2023-03-27T21:17:46.222Z,6.03
2023-03-27T21:20:13.724Z,6.35
2023-03-27T21:22:41.135Z,5.32
2023-03-27T21:25:08.861Z,6.07
2023-03-27T21:27:36.355Z,6.00
2023-03-27T21:30:04.157Z,5.60
2023-03-27T21:32:31.539Z,6.20
2023-03-27T21:34:58.970Z,5.82
2023-03-27T21:37:26.408Z,5.65
2023-03-27T21:39:53.794Z,5.78
2023-03-27T21:42:21.894Z,5.38
2023-03-27T21:44:53.739Z,5.68
2023-03-27T21:47:24.939Z,5.63
2023-03-27T21:49:57.055Z,5.00
2023-03-27T21:52:24.629Z,5.68
2023-03-27T21:55:02.554Z,5.93
2023-03-27T21:57:31.013Z,5.80
2023-03-27T21:59:58.672Z,5.50
2023-03-27T22:02:26.239Z,5.97
2023-03-27T22:04:53.795Z,5.75
2023-03-27T22:07:21.440Z,6.20
2023-03-27T22:09:48.830Z,6.10
2023-03-27T22:12:16.780Z,6.38
2023-03-27T22:14:44.267Z,6.82
2023-03-27T22:17:11.707Z,6.50
2023-03-27T22:19:39.192Z,7.13
2023-03-27T22:22:06.531Z,6.90
2023-03-27T22:24:33.952Z,7.03
2023-03-27T22:27:01.706Z,6.68
2023-03-27T22:29:29.174Z,7.45
2023-03-27T22:31:56.535Z,6.97
2023-03-27T22:34:24.032Z,6.53
2023-03-27T22:36:51.386Z,6.00
2023-03-27T22:39:18.845Z,5.75
2023-03-27T22:41:46.252Z,5.55
2023-03-27T22:44:13.711Z,5.07
2023-03-27T22:46:41.198Z,4.75
2023-03-27T22:49:08.711Z,4.40
2023-03-27T22:51:36.184Z,3.95
2023-03-27T22:54:03.589Z,4.00
2023-03-27T22:56:31.109Z,3.42
2023-03-27T22:58:58.696Z,3.20
2023-03-27T23:01:26.258Z,3.72
2023-03-27T23:03:53.931Z,3.35
2023-03-27T23:06:22.952Z,3.25
2023-03-27T23:08:50.849Z,3.22
2023-03-27T23:11:18.903Z,3.05
2023-03-27T23:13:46.530Z,3.03
2023-03-27T23:16:14.080Z,3.08
2023-03-27T23:18:41.699Z,2.90
2023-03-27T23:21:13.134Z,2.83
2023-03-27T23:23:41.323Z,3.17
2023-03-27T23:26:09.276Z,3.58
2023-03-27T23:28:38.375Z,3.55
2023-03-27T23:31:07.009Z,3.88
2023-03-27T23:33:36.148Z,3.80
2023-03-27T23:36:08.089Z,3.92
2023-03-27T23:38:37.305Z,4.10
2023-03-27T23:41:07.277Z,3.92
2023-03-27T23:43:35.100Z,4.22
2023-03-27T23:46:04.137Z,3.60
2023-03-27T23:48:31.815Z,3.85
2023-03-27T23:50:59.232Z,4.18
2023-03-27T23:53:27.667Z,3.80
2023-03-27T23:55:56.319Z,3.78
2023-03-27T23:58:24.525Z,4.00
